Time;durP1;ratioP1;P1;durP2;ratioP2;P2;SDS_P1;SDS_P2;PMS_P1;PMS_P2;Temp;Humidity;BMP_temperature;BMP_pressure;BME280_temperature;BME280_humidity;BME280_pressure;Samples;Min_cycle;Max_cycle;Signal;HPM_P1;HPM_P2
2024/03/16 00:01:40;;;;;;;6.22;1.52;;;12.20;99.90;;;;;;4160967;28;20026;-68
2024/03/16 00:03:41;;;;;;;4.00;1.08;;;12.20;99.90;;;;;;4161470;28;20048;-60
2024/03/16 00:05:42;;;;;;;4.10;1.25;;;12.20;99.90;;;;;;4158578;28;20508;-66
2024/03/16 00:07:43;;;;;;;3.10;1.20;;;12.20;99.90;;;;;;4160522;28;20057;-68
2024/03/16 00:09:44;;;;;;;3.00;1.02;;;12.20;99.90;;;;;;4160765;28;20045;-68
2024/03/16 00:11:45;;;;;;;5.10;1.00;;;12.20;99.90;;;;;;4160141;28;20037;-68
2024/03/16 00:13:45;;;;;;;3.90;1.42;;;12.20;99.90;;;;;;4161709;28;20084;-68
2024/03/16 00:15:51;;;;;;;3.75;1.30;;;12.20;99.90;;;;;;4160116;28;20497;-68
2024/03/16 00:17:52;;;;;;;3.13;1.13;;;12.20;99.90;;;;;;4158316;28;20037;-68
2024/03/16 00:19:53;;;;;;;2.45;0.80;;;12.20;99.90;;;;;;4158862;28;20402;-68
2024/03/16 00:21:54;;;;;;;2.47;1.23;;;12.20;99.90;;;;;;4159641;28;20022;-68
2024/03/16 00:23:54;;;;;;;2.00;0.95;;;12.20;99.90;;;;;;4161613;28;20038;-68
2024/03/16 00:25:55;;;;;;;2.60;0.85;;;12.20;99.90;;;;;;4160601;28;20087;-68
2024/03/16 00:27:55;;;;;;;5.53;1.35;;;12.20;99.90;;;;;;4158439;28;20505;-68
2024/03/16 00:29:56;;;;;;;3.42;1.00;;;12.10;99.90;;;;;;4161071;28;20042;-68
2024/03/16 00:31:57;;;;;;;2.25;0.75;;;12.20;99.90;;;;;;4159918;28;20385;-68
2024/03/16 00:33:57;;;;;;;4.68;1.33;;;12.20;99.90;;;;;;4156457;28;20033;-68
2024/03/16 00:35:58;;;;;;;3.38;0.82;;;12.10;99.90;;;;;;4154929;28;20117;-68
2024/03/16 00:37:58;;;;;;;5.93;1.35;;;12.10;99.90;;;;;;4157948;28;20038;-68
2024/03/16 00:39:59;;;;;;;5.45;1.38;;;12.10;99.90;;;;;;4161257;28;20112;-68
2024/03/16 00:42:00;;;;;;;6.32;0.95;;;12.10;99.90;;;;;;4159900;28;20041;-68
2024/03/16 00:44:01;;;;;;;3.67;1.38;;;12.10;99.90;;;;;;4158863;28;20033;-68
2024/03/16 00:46:03;;;;;;;2.75;1.10;;;12.10;99.90;;;;;;4154110;28;20037;-68
2024/03/16 00:48:04;;;;;;;5.40;1.27;;;12.10;99.90;;;;;;4159163;28;20041;-68
2024/03/16 00:50:05;;;;;;;5.18;1.40;;;12.20;99.90;;;;;;4154899;28;20516;-68
2024/03/16 00:52:05;;;;;;;3.17;1.13;;;12.10;99.90;;;;;;4160200;28;20034;-68
2024/03/16 00:54:06;;;;;;;3.85;1.20;;;12.10;99.90;;;;;;4160554;28;20038;-68
2024/03/16 00:56:09;;;;;;;2.70;1.20;;;12.10;99.90;;;;;;4158094;28;20710;-68
2024/03/16 00:58:10;;;;;;;2.75;0.85;;;12.10;99.90;;;;;;4160167;28;20042;-68
2024/03/16 01:00:14;;;;;;;3.67;1.52;;;12.10;99.90;;;;;;4158831;28;20433;-69
2024/03/16 01:02:15;;;;;;;6.20;1.67;;;12.10;99.90;;;;;;4159713;28;20478;-68
2024/03/16 01:04:15;;;;;;;4.57;1.08;;;12.10;99.90;;;;;;4159992;28;20060;-68
2024/03/16 01:06:16;;;;;;;4.25;1.02;;;12.10;99.90;;;;;;4159218;28;20509;-68
2024/03/16 01:08:16;;;;;;;4.70;1.38;;;12.10;99.90;;;;;;4156526;28;20113;-68
2024/03/16 01:10:17;;;;;;;2.28;0.93;;;12.10;99.90;;;;;;4155598;28;20041;-68
2024/03/16 01:12:18;;;;;;;3.78;1.02;;;12.10;99.90;;;;;;4161331;28;20033;-67
2024/03/16 01:14:19;;;;;;;5.38;1.52;;;12.10;99.90;;;;;;4160073;28;20026;-70
2024/03/16 01:16:19;;;;;;;5.20;1.30;;;12.10;99.90;;;;;;4159555;28;20056;-71
2024/03/16 01:18:20;;;;;;;3.60;1.10;;;12.10;99.90;;;;;;4154886;28;20041;-71
2024/03/16 01:20:20;;;;;;;4.28;1.27;;;12.10;99.90;;;;;;4157483;28;20470;-70
2024/03/16 01:22:21;;;;;;;6.80;1.50;;;12.10;99.90;;;;;;4159447;28;20034;-72
2024/03/16 01:24:22;;;;;;;5.75;1.38;;;12.20;99.90;;;;;;4158581;28;20079;-71
2024/03/16 01:26:23;;;;;;;8.82;1.52;;;12.10;99.90;;;;;;4159676;28;20664;-71
2024/03/16 01:28:23;;;;;;;3.47;1.30;;;12.10;99.90;;;;;;4156087;28;20044;-71
2024/03/16 01:30:24;;;;;;;4.95;1.65;;;12.20;99.90;;;;;;4155978;28;20050;-72
2024/03/16 01:32:25;;;;;;;3.90;1.35;;;12.20;99.90;;;;;;4159208;28;20029;-71
2024/03/16 01:34:25;;;;;;;4.63;1.52;;;12.20;99.90;;;;;;4155708;28;20437;-71
2024/03/16 01:36:26;;;;;;;5.93;1.42;;;12.20;99.90;;;;;;4159932;28;20542;-71
2024/03/16 01:38:26;;;;;;;5.40;1.80;;;12.20;99.90;;;;;;4158597;28;20025;-72
2024/03/16 01:40:27;;;;;;;4.28;1.30;;;12.20;99.90;;;;;;4157648;28;20037;-71
2024/03/16 01:42:27;;;;;;;7.60;1.85;;;12.20;99.90;;;;;;4160969;28;20033;-71
2024/03/16 01:44:29;;;;;;;5.13;1.50;;;12.20;99.90;;;;;;4159852;28;20179;-71
2024/03/16 01:46:30;;;;;;;4.47;1.40;;;12.20;99.90;;;;;;4158518;28;20037;-71
2024/03/16 01:48:30;;;;;;;4.18;1.20;;;12.20;99.90;;;;;;4159535;28;20030;-71
2024/03/16 01:50:31;;;;;;;6.97;1.52;;;12.20;99.90;;;;;;4157404;28;20132;-71
2024/03/16 01:52:32;;;;;;;4.57;1.52;;;12.20;99.90;;;;;;4159233;28;20108;-72
2024/03/16 01:54:32;;;;;;;6.60;1.98;;;12.20;99.90;;;;;;4157917;28;20047;-71
2024/03/16 01:56:34;;;;;;;6.57;1.48;;;12.20;99.90;;;;;;4158527;28;20045;-71
2024/03/16 01:58:42;;;;;;;5.05;1.60;;;12.20;99.90;;;;;;4157608;28;20413;-71
2024/03/16 02:00:47;;;;;;;5.88;1.48;;;12.10;99.90;;;;;;4145428;28;20041;-71
2024/03/16 02:02:47;;;;;;;7.15;1.70;;;12.20;99.90;;;;;;4159247;28;20049;-72
2024/03/16 02:04:48;;;;;;;2.90;1.30;;;12.20;99.90;;;;;;4159218;28;20049;-72
2024/03/16 02:06:49;;;;;;;6.60;1.52;;;12.20;99.90;;;;;;4158918;28;20029;-71
2024/03/16 02:08:49;;;;;;;4.82;1.60;;;12.20;99.90;;;;;;4158007;28;20033;-71
2024/03/16 02:10:50;;;;;;;4.60;1.15;;;12.20;99.90;;;;;;4157345;28;20443;-71
2024/03/16 02:12:50;;;;;;;9.45;1.65;;;12.20;99.90;;;;;;4160153;28;20056;-69
2024/03/16 02:14:51;;;;;;;5.35;1.48;;;12.20;99.90;;;;;;4159858;28;20040;-70
2024/03/16 02:16:54;;;;;;;5.15;1.65;;;12.20;99.90;;;;;;4157935;28;20485;-72
2024/03/16 02:18:55;;;;;;;5.43;1.58;;;12.10;99.90;;;;;;4155852;28;20482;-72
2024/03/16 02:20:56;;;;;;;5.82;1.60;;;12.10;99.90;;;;;;4157821;28;20080;-72
2024/03/16 02:22:56;;;;;;;5.72;1.50;;;12.10;99.90;;;;;;4154910;28;20109;-72
2024/03/16 02:24:57;;;;;;;3.90;1.33;;;12.10;99.90;;;;;;4159753;28;20149;-67
2024/03/16 02:26:58;;;;;;;8.25;1.85;;;12.10;99.90;;;;;;4158718;28;20041;-68
2024/03/16 02:28:59;;;;;;;4.85;1.80;;;12.10;99.90;;;;;;4157520;28;20095;-68
2024/03/16 02:30:59;;;;;;;6.15;1.88;;;12.00;99.90;;;;;;4152348;28;20041;-68
2024/03/16 02:33:05;;;;;;;6.35;2.03;;;12.00;99.90;;;;;;4155770;28;20124;-67
2024/03/16 02:35:09;;;;;;;6.57;1.67;;;12.00;99.90;;;;;;4159156;28;20037;-69
2024/03/16 02:37:10;;;;;;;4.38;1.55;;;12.00;99.90;;;;;;4154965;28;20095;-67
2024/03/16 02:39:11;;;;;;;3.83;1.42;;;12.00;99.90;;;;;;4156619;28;20143;-68
2024/03/16 02:41:11;;;;;;;5.10;1.63;;;12.00;99.90;;;;;;4155053;28;20045;-68
2024/03/16 02:43:12;;;;;;;5.82;1.77;;;12.00;99.90;;;;;;4157628;28;20095;-67
2024/03/16 02:45:13;;;;;;;4.30;1.70;;;12.00;99.90;;;;;;4154829;28;20372;-68
2024/03/16 02:47:14;;;;;;;6.07;1.52;;;12.10;99.90;;;;;;4158084;28;20029;-70
2024/03/16 02:49:15;;;;;;;4.07;1.60;;;12.00;99.90;;;;;;4154922;28;20033;-67
2024/03/16 02:51:15;;;;;;;6.15;1.75;;;12.00;99.90;;;;;;4157026;28;20041;-67
2024/03/16 02:53:16;;;;;;;7.50;2.38;;;12.10;99.90;;;;;;4154474;28;20049;-68
2024/03/16 02:55:16;;;;;;;6.53;2.00;;;12.00;99.90;;;;;;4158061;28;20033;-68
2024/03/16 02:57:17;;;;;;;5.78;1.90;;;12.00;99.90;;;;;;4159756;28;20029;-67
2024/03/16 02:59:18;;;;;;;4.13;1.60;;;12.00;99.90;;;;;;4157483;28;20044;-68
2024/03/16 03:01:20;;;;;;;3.72;1.50;;;12.00;99.90;;;;;;4157556;28;20091;-68
2024/03/16 03:03:20;;;;;;;5.50;2.03;;;12.00;99.90;;;;;;4189941;28;20085;-67
2024/03/16 03:05:22;;;;;;;6.75;2.22;;;12.00;99.90;;;;;;4157154;28;20513;-67
2024/03/16 03:07:23;;;;;;;5.28;1.85;;;12.00;99.90;;;;;;4157615;28;20033;-67
2024/03/16 03:09:23;;;;;;;7.45;1.90;;;12.00;99.90;;;;;;4155893;28;20030;-68
2024/03/16 03:11:27;;;;;;;7.75;1.50;;;12.00;99.90;;;;;;4139633;28;20038;-68
2024/03/16 03:13:28;;;;;;;6.32;1.98;;;12.00;99.90;;;;;;4151159;28;20462;-68
2024/03/16 03:15:29;;;;;;;5.22;1.95;;;12.00;99.90;;;;;;4156697;28;20217;-68
2024/03/16 03:17:29;;;;;;;7.05;1.80;;;12.00;99.90;;;;;;4157667;28;20386;-68
2024/03/16 03:19:30;;;;;;;4.50;2.05;;;12.00;99.90;;;;;;4155304;28;20041;-68
2024/03/16 03:21:31;;;;;;;5.63;1.73;;;12.00;99.90;;;;;;4156122;28;20120;-67
2024/03/16 03:23:32;;;;;;;7.28;2.00;;;12.00;99.90;;;;;;4158915;28;20033;-68
2024/03/16 03:25:32;;;;;;;5.53;1.90;;;12.00;99.90;;;;;;4157305;28;20033;-68
2024/03/16 03:27:34;;;;;;;5.68;2.08;;;12.00;99.90;;;;;;4158859;28;20481;-68
2024/03/16 03:29:35;;;;;;;6.28;1.95;;;12.00;99.90;;;;;;4158132;28;20042;-68
2024/03/16 03:31:35;;;;;;;3.30;1.92;;;12.00;99.90;;;;;;4157405;28;20064;-68
2024/03/16 03:33:36;;;;;;;4.03;1.80;;;12.00;99.90;;;;;;4158378;28;20378;-68
2024/03/16 03:35:37;;;;;;;8.65;2.28;;;11.90;99.90;;;;;;4152206;28;20034;-61
2024/03/16 03:37:38;;;;;;;5.60;1.90;;;11.90;99.90;;;;;;4152797;28;20638;-61
2024/03/16 03:39:38;;;;;;;4.68;1.83;;;12.00;99.90;;;;;;4151675;28;20037;-61
2024/03/16 03:41:39;;;;;;;7.38;2.33;;;12.00;99.90;;;;;;4152515;28;20033;-61
2024/03/16 03:43:42;;;;;;;8.00;2.05;;;11.90;99.90;;;;;;4156659;28;20060;-61
2024/03/16 03:48:00;;;;;;;6.20;2.35;;;11.80;99.90;;;;;;4157194;28;22334;-61
2024/03/16 03:50:00;;;;;;;6.63;2.05;;;11.80;99.90;;;;;;4152081;28;20057;-61
2024/03/16 03:52:02;;;;;;;5.22;1.90;;;11.80;99.90;;;;;;4155800;28;20021;-61
2024/03/16 03:54:04;;;;;;;5.28;2.00;;;11.80;99.90;;;;;;4158641;28;20045;-61
2024/03/16 03:56:05;;;;;;;4.70;1.90;;;11.80;99.90;;;;;;4155696;28;20125;-61
2024/03/16 03:58:06;;;;;;;8.25;2.03;;;11.90;99.90;;;;;;4158606;28;20030;-61
2024/03/16 04:00:08;;;;;;;7.20;2.35;;;11.80;99.90;;;;;;4156811;28;20030;-61
2024/03/16 04:02:09;;;;;;;3.08;1.70;;;11.80;99.90;;;;;;4158260;28;20402;-61
2024/03/16 04:04:09;;;;;;;4.43;2.15;;;11.80;99.90;;;;;;4157701;28;20045;-61
2024/03/16 04:06:10;;;;;;;8.38;2.72;;;11.80;99.90;;;;;;4157732;28;20033;-61
2024/03/16 04:08:10;;;;;;;5.95;2.33;;;11.80;99.90;;;;;;4152334;28;20057;-61
2024/03/16 04:10:11;;;;;;;8.18;2.83;;;11.80;99.90;;;;;;4154981;28;20042;-62
2024/03/16 04:12:12;;;;;;;8.52;2.90;;;11.80;99.90;;;;;;4157941;28;20033;-61
2024/03/16 04:14:13;;;;;;;5.63;2.65;;;11.80;99.90;;;;;;4168054;28;20378;-61
2024/03/16 04:16:14;;;;;;;6.00;2.70;;;11.80;99.90;;;;;;4156993;28;20053;-61
2024/03/16 04:18:15;;;;;;;10.75;2.45;;;11.80;99.90;;;;;;4156380;28;20599;-65
2024/03/16 04:20:16;;;;;;;8.00;2.20;;;11.90;99.90;;;;;;4158944;28;20045;-62
2024/03/16 04:22:17;;;;;;;6.20;2.40;;;11.80;99.90;;;;;;4159562;28;20397;-61
2024/03/16 04:24:18;;;;;;;10.75;2.92;;;11.90;99.90;;;;;;4160210;28;20112;-61
2024/03/16 04:26:18;;;;;;;7.68;2.70;;;11.90;99.90;;;;;;4159042;28;20045;-61
2024/03/16 04:28:19;;;;;;;15.32;3.90;;;11.90;99.90;;;;;;4161122;28;20042;-61
2024/03/16 04:30:20;;;;;;;5.63;2.95;;;11.90;99.90;;;;;;4157609;28;20423;-61
2024/03/16 04:32:26;;;;;;;5.43;2.70;;;11.80;99.90;;;;;;4161151;28;20033;-61
2024/03/16 04:34:27;;;;;;;6.05;2.60;;;11.80;99.90;;;;;;4157845;28;20462;-62
2024/03/16 04:36:27;;;;;;;8.20;2.95;;;11.80;99.90;;;;;;4191591;28;20035;-61
2024/03/16 04:38:28;;;;;;;10.52;3.40;;;11.80;99.90;;;;;;4159087;28;20034;-61
2024/03/16 04:40:29;;;;;;;6.30;3.10;;;11.80;99.90;;;;;;4159556;28;20467;-61
2024/03/16 04:42:29;;;;;;;5.95;3.03;;;11.80;99.90;;;;;;4161685;28;20037;-61
2024/03/16 04:44:33;;;;;;;7.43;3.22;;;11.80;99.90;;;;;;4158424;28;20038;-69
2024/03/16 04:46:33;;;;;;;6.30;3.03;;;11.80;99.90;;;;;;4160504;28;20112;-69
2024/03/16 04:48:34;;;;;;;9.30;3.72;;;11.80;99.90;;;;;;4157364;28;20034;-69
2024/03/16 04:50:35;;;;;;;10.70;4.00;;;11.80;99.90;;;;;;4158902;28;20052;-69
2024/03/16 04:52:35;;;;;;;10.68;4.50;;;11.80;99.90;;;;;;4154555;28;20383;-69
2024/03/16 04:54:36;;;;;;;8.05;4.10;;;11.80;99.90;;;;;;4161162;28;20459;-69
2024/03/16 04:56:36;;;;;;;7.25;4.15;;;11.80;99.90;;;;;;4160486;28;20029;-69
2024/03/16 04:58:37;;;;;;;8.23;3.75;;;11.80;99.90;;;;;;4159716;28;20038;-70
2024/03/16 05:00:38;;;;;;;7.18;4.13;;;11.80;99.90;;;;;;4157348;28;20116;-69
2024/03/16 05:02:38;;;;;;;15.27;6.05;;;11.80;99.90;;;;;;4160501;28;20363;-70
2024/03/16 05:04:39;;;;;;;15.55;6.93;;;11.70;99.90;;;;;;4156110;28;20055;-70
2024/03/16 05:06:40;;;;;;;15.18;6.15;;;11.60;99.90;;;;;;4157693;28;20033;-69
2024/03/16 05:08:41;;;;;;;12.93;6.40;;;11.60;99.90;;;;;;4190759;28;20111;-69
2024/03/16 05:10:41;;;;;;;13.80;6.05;;;11.60;99.90;;;;;;4158011;28;20045;-70
2024/03/16 05:12:42;;;;;;;12.00;5.20;;;11.50;99.90;;;;;;4175109;28;20483;-69
2024/03/16 05:14:43;;;;;;;14.25;5.75;;;11.40;99.90;;;;;;4160527;28;20036;-69
2024/03/16 05:16:43;;;;;;;11.27;5.53;;;11.30;99.90;;;;;;4159199;28;20052;-69
2024/03/16 05:18:44;;;;;;;11.48;5.03;;;11.20;99.90;;;;;;4158797;28;20053;-69
2024/03/16 05:20:46;;;;;;;11.57;4.85;;;11.20;99.90;;;;;;4158133;28;20431;-69
2024/03/16 05:22:48;;;;;;;12.63;5.03;;;11.10;99.90;;;;;;4182100;28;20048;-69
2024/03/16 05:24:49;;;;;;;11.05;4.50;;;11.10;99.90;;;;;;4150522;28;20042;-69
2024/03/16 05:26:49;;;;;;;11.73;4.78;;;11.00;99.90;;;;;;4150520;28;20041;-69
2024/03/16 05:28:50;;;;;;;12.32;5.40;;;11.00;99.90;;;;;;4159255;28;20029;-69
2024/03/16 05:30:53;;;;;;;10.93;4.45;;;10.90;99.90;;;;;;4157325;28;20474;-69
2024/03/16 05:32:54;;;;;;;11.85;4.50;;;10.90;99.90;;;;;;4138108;28;20033;-69
2024/03/16 05:34:55;;;;;;;12.65;4.45;;;10.90;99.90;;;;;;4160158;28;20233;-69
2024/03/16 05:36:55;;;;;;;13.20;5.00;;;10.90;99.90;;;;;;4152036;28;20029;-69
2024/03/16 05:38:56;;;;;;;7.43;3.88;;;10.90;99.90;;;;;;4155298;28;20453;-69
2024/03/16 05:40:57;;;;;;;15.00;5.10;;;10.80;99.90;;;;;;4158751;28;20064;-69
2024/03/16 05:42:57;;;;;;;15.15;4.60;;;10.80;99.90;;;;;;4158924;28;20083;-69
2024/03/16 05:44:59;;;;;;;10.98;4.22;;;10.80;99.90;;;;;;4159988;28;20038;-69
2024/03/16 05:46:59;;;;;;;18.53;4.00;;;10.80;99.90;;;;;;4158937;28;20539;-70
2024/03/16 05:49:00;;;;;;;11.48;4.07;;;10.70;99.90;;;;;;4157203;28;20045;-69
2024/03/16 05:51:01;;;;;;;8.02;3.65;;;10.70;99.90;;;;;;4158805;28;20121;-70
2024/03/16 05:53:02;;;;;;;5.65;3.85;;;10.70;99.90;;;;;;4160300;28;20462;-69
2024/03/16 05:55:04;;;;;;;7.43;3.53;;;10.70;99.90;;;;;;4159657;28;20087;-69
2024/03/16 05:57:04;;;;;;;8.88;3.60;;;10.60;99.90;;;;;;4147780;28;20034;-69
2024/03/16 05:59:09;;;;;;;8.30;3.35;;;10.60;99.90;;;;;;4150079;28;20386;-69
2024/03/16 06:01:09;;;;;;;10.13;4.22;;;10.60;99.90;;;;;;4155184;28;20421;-69
2024/03/16 06:03:11;;;;;;;7.03;2.97;;;10.60;99.90;;;;;;4148869;28;20120;-69
2024/03/16 06:05:13;;;;;;;5.35;2.63;;;10.50;99.90;;;;;;4155418;28;20054;-70
2024/03/16 06:07:15;;;;;;;3.30;2.88;;;10.50;99.90;;;;;;4148119;28;20071;-61
2024/03/16 06:09:15;;;;;;;6.75;3.65;;;10.50;99.90;;;;;;4150910;28;20398;-61
2024/03/16 06:11:16;;;;;;;4.30;2.63;;;10.50;99.90;;;;;;4155294;28;20046;-64
2024/03/16 06:13:17;;;;;;;8.13;3.05;;;10.50;99.90;;;;;;4155765;28;20068;-62
2024/03/16 06:15:17;;;;;;;6.07;3.60;;;10.50;99.90;;;;;;4157474;28;20032;-62
2024/03/16 06:17:18;;;;;;;6.07;3.15;;;10.50;99.90;;;;;;4155709;28;20033;-62
2024/03/16 06:19:19;;;;;;;3.97;2.97;;;10.50;99.90;;;;;;4151612;28;20132;-61
2024/03/16 06:21:19;;;;;;;4.53;3.05;;;10.50;99.90;;;;;;4155582;28;20100;-62
2024/03/16 06:23:20;;;;;;;5.38;3.42;;;10.50;99.90;;;;;;4148981;28;20998;-62
2024/03/16 06:25:21;;;;;;;9.05;3.75;;;10.50;99.90;;;;;;4153877;28;20096;-62
2024/03/16 06:27:22;;;;;;;6.95;3.17;;;10.40;99.90;;;;;;4154248;28;20546;-62
2024/03/16 06:29:25;;;;;;;4.75;2.55;;;10.50;99.90;;;;;;4150740;28;20087;-62
2024/03/16 06:31:32;;;;;;;4.72;2.33;;;10.40;99.90;;;;;;4139230;28;20523;-62
2024/03/16 06:33:33;;;;;;;5.53;2.50;;;10.40;99.90;;;;;;4150695;28;20033;-62
2024/03/16 06:35:41;;;;;;;3.63;2.42;;;10.40;99.90;;;;;;4142272;28;20041;-64
2024/03/16 06:37:42;;;;;;;3.58;2.50;;;10.40;99.90;;;;;;4152378;28;20037;-61
2024/03/16 06:39:43;;;;;;;2.80;2.33;;;10.40;99.90;;;;;;4154678;28;20075;-62
2024/03/16 06:41:44;;;;;;;5.07;2.47;;;10.40;99.90;;;;;;4154013;28;20029;-61
2024/03/16 06:43:45;;;;;;;7.20;2.90;;;10.40;99.90;;;;;;4153935;28;20167;-61
2024/03/16 06:45:45;;;;;;;6.93;2.38;;;10.30;99.90;;;;;;4154022;28;20061;-61
2024/03/16 06:47:46;;;;;;;4.05;1.92;;;10.30;99.90;;;;;;4151858;28;20583;-62
2024/03/16 06:49:46;;;;;;;5.65;2.15;;;10.30;99.90;;;;;;4156952;28;20046;-62
2024/03/16 06:51:47;;;;;;;2.50;1.80;;;10.30;99.90;;;;;;4156986;28;20121;-62
2024/03/16 06:53:48;;;;;;;4.10;1.90;;;10.30;99.90;;;;;;4143850;28;20116;-62
2024/03/16 06:55:51;;;;;;;4.00;1.52;;;10.30;99.90;;;;;;4155520;28;20029;-62
2024/03/16 06:57:52;;;;;;;5.00;2.60;;;10.30;99.90;;;;;;4157668;28;20037;-62
2024/03/16 06:59:53;;;;;;;2.97;1.80;;;10.30;99.90;;;;;;4156444;28;20477;-63
2024/03/16 07:01:54;;;;;;;3.70;2.42;;;10.30;99.90;;;;;;4156827;28;20037;-60
2024/03/16 07:03:55;;;;;;;3.65;1.80;;;10.30;99.90;;;;;;4139895;28;20640;-61
2024/03/16 07:05:56;;;;;;;2.92;1.80;;;10.30;99.90;;;;;;4157099;28;20037;-60
2024/03/16 07:07:57;;;;;;;3.03;2.00;;;10.40;99.90;;;;;;4159926;28;20413;-61
2024/03/16 07:09:58;;;;;;;3.67;1.70;;;10.40;99.90;;;;;;4158189;28;20045;-60
2024/03/16 07:11:58;;;;;;;3.67;2.17;;;10.40;99.90;;;;;;4158242;28;20039;-60
2024/03/16 07:13:59;;;;;;;5.43;2.17;;;10.40;99.90;;;;;;4153604;28;20031;-60
2024/03/16 07:16:00;;;;;;;6.05;2.30;;;10.40;99.90;;;;;;4153889;28;20176;-59
2024/03/16 07:18:03;;;;;;;5.75;2.33;;;10.40;99.90;;;;;;4157805;28;20116;-60
2024/03/16 07:20:06;;;;;;;3.40;2.08;;;10.40;99.90;;;;;;4154814;28;20029;-60
2024/03/16 07:22:07;;;;;;;5.68;1.98;;;10.40;99.90;;;;;;4156815;28;20037;-59
2024/03/16 07:24:09;;;;;;;7.20;2.10;;;10.40;99.90;;;;;;4154376;28;20037;-61
2024/03/16 07:26:10;;;;;;;3.10;2.05;;;10.40;99.90;;;;;;4153866;28;20045;-59
2024/03/16 07:28:11;;;;;;;5.85;2.00;;;10.50;99.90;;;;;;4147643;28;20080;-60
2024/03/16 07:30:12;;;;;;;6.53;2.90;;;10.50;99.90;;;;;;4154404;28;20046;-59
2024/03/16 07:32:13;;;;;;;5.85;2.72;;;10.50;99.90;;;;;;4156759;28;20033;-60
2024/03/16 07:34:15;;;;;;;9.48;3.70;;;10.50;99.90;;;;;;4157124;28;20462;-60
2024/03/16 07:36:15;;;;;;;5.22;2.63;;;10.50;99.90;;;;;;4156700;28;20334;-60
2024/03/16 07:38:17;;;;;;;5.43;3.10;;;10.50;99.90;;;;;;4156025;28;20034;-60
2024/03/16 07:40:18;;;;;;;5.20;2.92;;;10.50;99.90;;;;;;4140528;28;20488;-60
2024/03/16 07:42:19;;;;;;;5.15;2.90;;;10.50;99.90;;;;;;4158611;28;20125;-60
2024/03/16 07:44:20;;;;;;;5.95;2.85;;;10.50;99.90;;;;;;4155118;28;20038;-59
2024/03/16 07:46:21;;;;;;;5.00;2.80;;;10.50;99.90;;;;;;4153374;28;20080;-60
2024/03/16 07:48:22;;;;;;;6.50;3.53;;;10.50;99.90;;;;;;4155735;28;20033;-60
2024/03/16 07:50:22;;;;;;;5.85;3.00;;;10.50;99.90;;;;;;4152342;28;20583;-59
2024/03/16 07:52:23;;;;;;;10.98;3.75;;;10.40;99.90;;;;;;4155651;28;20511;-59
2024/03/16 07:54:24;;;;;;;4.20;2.67;;;10.50;99.90;;;;;;4154818;28;20155;-59
2024/03/16 07:56:25;;;;;;;10.20;3.25;;;10.50;99.90;;;;;;4155649;28;20091;-60
2024/03/16 07:58:26;;;;;;;8.95;4.00;;;10.50;99.90;;;;;;4155856;28;20389;-60
2024/03/16 08:00:27;;;;;;;5.93;2.85;;;10.50;99.90;;;;;;4153619;28;20038;-59
2024/03/16 08:02:28;;;;;;;6.40;3.50;;;10.40;99.90;;;;;;4156937;28;20136;-59
2024/03/16 08:04:33;;;;;;;4.85;3.00;;;10.50;99.90;;;;;;4157340;28;20068;-59
2024/03/16 08:06:33;;;;;;;3.80;2.72;;;10.50;99.90;;;;;;4159697;28;20064;-59
2024/03/16 08:08:34;;;;;;;10.88;3.38;;;10.50;99.90;;;;;;4160238;28;20034;-59
2024/03/16 08:10:35;;;;;;;6.90;3.03;;;10.50;99.90;;;;;;4157773;28;20120;-59
2024/03/16 08:12:36;;;;;;;4.15;1.90;;;10.50;99.90;;;;;;4159507;28;20088;-59
2024/03/16 08:14:37;;;;;;;2.55;1.20;;;10.40;99.90;;;;;;4159749;28;20524;-63
2024/03/16 08:16:38;;;;;;;5.20;1.17;;;10.40;99.90;;;;;;4158672;28;20042;-63
2024/03/16 08:18:39;;;;;;;2.58;0.82;;;10.20;99.90;;;;;;4157818;28;20034;-65
2024/03/16 08:20:40;;;;;;;2.58;1.00;;;10.20;99.90;;;;;;4155555;28;20037;-64
2024/03/16 08:22:40;;;;;;;1.60;0.60;;;10.10;99.90;;;;;;4154206;28;20509;-64
2024/03/16 08:24:41;;;;;;;3.10;0.93;;;10.00;99.90;;;;;;4161575;28;20045;-63
2024/03/16 08:26:42;;;;;;;1.13;0.50;;;10.10;99.90;;;;;;4156257;28;20037;-63
2024/03/16 08:28:43;;;;;;;2.85;0.68;;;10.00;99.90;;;;;;4157812;28;20042;-63
2024/03/16 08:30:44;;;;;;;3.70;0.90;;;10.00;99.90;;;;;;4156717;28;20569;-64
2024/03/16 08:32:44;;;;;;;4.05;1.00;;;10.00;99.90;;;;;;4157315;28;20497;-63
2024/03/16 08:34:45;;;;;;;3.88;0.93;;;10.00;99.90;;;;;;4155669;28;20452;-63
2024/03/16 08:36:46;;;;;;;4.45;0.80;;;10.00;99.90;;;;;;4155199;28;20120;-63
2024/03/16 08:38:47;;;;;;;2.80;1.10;;;10.00;99.90;;;;;;4157491;28;20037;-63
2024/03/16 08:40:47;;;;;;;1.95;0.90;;;10.10;99.90;;;;;;4156980;28;20438;-63
2024/03/16 08:42:50;;;;;;;2.35;1.48;;;10.20;99.90;;;;;;4157970;28;20034;-64
2024/03/16 08:44:52;;;;;;;4.60;1.48;;;10.20;99.90;;;;;;4157232;28;20042;-63
2024/03/16 08:46:53;;;;;;;4.55;1.25;;;10.20;99.90;;;;;;4157971;28;20041;-63
2024/03/16 08:48:54;;;;;;;6.75;1.65;;;10.20;99.90;;;;;;4153121;28;20083;-63
2024/03/16 08:50:57;;;;;;;2.13;0.95;;;10.30;99.90;;;;;;4152651;28;20068;-63
2024/03/16 08:52:58;;;;;;;1.77;0.85;;;10.30;99.90;;;;;;4158011;28;20390;-63
2024/03/16 08:54:58;;;;;;;5.63;1.23;;;10.30;99.90;;;;;;4157186;28;20039;-63
2024/03/16 08:57:00;;;;;;;3.97;0.98;;;10.30;99.90;;;;;;4159867;28;20045;-63
2024/03/16 08:59:02;;;;;;;5.20;1.20;;;10.30;99.90;;;;;;4157546;28;20124;-63
2024/03/16 09:01:03;;;;;;;2.75;1.02;;;10.30;99.90;;;;;;4156281;28;20063;-63
2024/03/16 09:03:04;;;;;;;4.95;0.98;;;10.30;99.90;;;;;;4159701;28;20033;-64
2024/03/16 09:05:08;;;;;;;11.88;1.85;;;10.20;99.90;;;;;;4155138;28;20046;-63
2024/03/16 09:07:09;;;;;;;3.63;1.20;;;10.20;99.90;;;;;;4158154;28;20042;-64
2024/03/16 09:09:13;;;;;;;8.30;1.50;;;10.20;99.90;;;;;;4156265;28;20048;-63
2024/03/16 09:11:14;;;;;;;9.60;1.38;;;10.10;99.90;;;;;;4156891;28;20447;-63
2024/03/16 09:13:15;;;;;;;4.07;1.23;;;10.10;99.90;;;;;;4158826;28;20064;-63
2024/03/16 09:15:15;;;;;;;3.92;1.17;;;10.00;99.90;;;;;;4154923;28;20079;-63
2024/03/16 09:17:17;;;;;;;3.92;1.00;;;10.00;99.90;;;;;;4159418;28;20064;-63
2024/03/16 09:19:17;;;;;;;2.85;1.05;;;10.00;99.90;;;;;;4157629;28;20029;-63
2024/03/16 09:21:18;;;;;;;3.85;1.13;;;10.00;99.90;;;;;;4153773;28;20041;-64
2024/03/16 09:23:19;;;;;;;5.68;1.55;;;10.10;99.90;;;;;;4158681;28;20040;-64
2024/03/16 09:25:23;;;;;;;6.60;1.48;;;10.10;99.90;;;;;;4158678;28;20045;-64
2024/03/16 09:27:24;;;;;;;4.47;1.23;;;10.10;99.90;;;;;;4154490;28;20490;-65
2024/03/16 09:29:24;;;;;;;8.45;1.30;;;10.10;99.90;;;;;;4155971;28;20079;-65
2024/03/16 09:31:25;;;;;;;6.10;1.58;;;10.10;99.90;;;;;;4150677;28;20045;-65
2024/03/16 09:33:27;;;;;;;4.18;1.25;;;10.20;99.90;;;;;;4150930;28;20481;-65
2024/03/16 09:35:27;;;;;;;3.45;0.90;;;10.20;99.90;;;;;;4151804;28;21598;-65
2024/03/16 09:37:28;;;;;;;3.28;1.20;;;10.30;99.90;;;;;;4151764;28;20517;-65
2024/03/16 09:39:29;;;;;;;3.67;1.13;;;10.30;99.90;;;;;;4153573;28;20128;-65
2024/03/16 09:41:31;;;;;;;3.47;1.08;;;10.30;99.90;;;;;;4156666;28;20046;-65
2024/03/16 09:43:33;;;;;;;2.92;1.00;;;10.40;99.90;;;;;;4157587;28;20334;-65
2024/03/16 09:45:35;;;;;;;4.20;0.93;;;10.50;99.90;;;;;;4155190;28;20037;-65
2024/03/16 09:47:37;;;;;;;3.13;0.80;;;10.60;99.90;;;;;;4161871;28;20117;-65
2024/03/16 09:49:37;;;;;;;3.20;0.93;;;10.60;99.90;;;;;;4149497;28;20042;-65
2024/03/16 09:51:39;;;;;;;5.63;1.30;;;10.70;99.90;;;;;;4154657;28;20403;-64
2024/03/16 09:53:41;;;;;;;8.50;1.85;;;10.70;99.90;;;;;;4159100;28;20117;-64
2024/03/16 09:55:42;;;;;;;3.22;1.23;;;10.70;99.90;;;;;;4154367;28;20061;-64
2024/03/16 09:57:43;;;;;;;7.45;1.45;;;10.80;99.90;;;;;;4156981;28;20036;-65
2024/03/16 09:59:50;;;;;;;2.80;0.80;;;10.80;99.90;;;;;;4141341;28;20171;-65
2024/03/16 10:01:51;;;;;;;4.95;1.40;;;10.90;99.90;;;;;;4153942;28;20470;-65
2024/03/16 10:03:52;;;;;;;3.25;1.02;;;10.80;99.90;;;;;;4161034;28;20136;-65
2024/03/16 10:05:53;;;;;;;5.13;1.13;;;10.90;99.90;;;;;;4158433;28;20036;-64
2024/03/16 10:07:53;;;;;;;3.08;1.00;;;10.90;99.90;;;;;;4157943;28;20441;-65
2024/03/16 10:09:55;;;;;;;4.72;1.00;;;10.80;99.90;;;;;;4158439;28;20041;-64
2024/03/16 10:12:09;;;;;;;2.53;0.60;;;10.90;99.90;;;;;;4155430;28;20033;-64
2024/03/16 10:14:11;;;;;;;2.30;0.75;;;10.90;99.90;;;;;;4159331;28;20947;-64
2024/03/16 10:16:11;;;;;;;3.92;0.93;;;10.90;99.90;;;;;;4156755;28;20033;-65
2024/03/16 10:18:16;;;;;;;5.38;1.35;;;10.80;99.90;;;;;;4157368;28;20049;-65
2024/03/16 10:20:18;;;;;;;2.03;0.85;;;10.80;99.90;;;;;;4156852;28;20202;-64
2024/03/16 10:22:19;;;;;;;3.50;1.00;;;10.80;99.90;;;;;;4156252;28;20037;-64
2024/03/16 10:24:20;;;;;;;2.80;0.80;;;10.80;99.90;;;;;;4155068;28;20056;-65
2024/03/16 10:26:20;;;;;;;4.53;0.80;;;10.70;99.90;;;;;;4158542;28;20030;-64
2024/03/16 10:28:21;;;;;;;2.03;0.93;;;10.70;99.90;;;;;;4158559;28;20056;-64
2024/03/16 10:30:23;;;;;;;4.03;1.17;;;10.70;99.90;;;;;;4157644;28;20033;-64
2024/03/16 10:32:24;;;;;;;4.82;1.35;;;10.70;99.90;;;;;;4158402;28;20042;-65